Normandie — FNNO — position and weather

sailwx.info

Track history (hours):
 
Tides and Currents Weather Stations Pressure Air Temp Water Temp Dewpoint Dewpoint Depression Visibility Wind Speed Wind Dir Waves Ship Positions

Normandie

Operator: Brittany Ferries

Last reported at 2019-Jul-16 11:00 UTC. Time now 2019-Jul-16 11:09 UTC.
Position N 50°33' W 000°55'.

Length 161 m; beam 27 m.

Type: Ship. MMSI: 227273000.

Date/timePositionNaut miles runAvg speedWind from/ knotsBaromVisibWave heightAir tempDewpointWater temp
2019-Jul-16 11:00N 50°33' W 000°55'2619.2
2019-Jul-16 09:39N 50°09' W 000°42'319.8
2019-Jul-16 09:29N 50°06' W 000°42'1019.2
2019-Jul-16 08:59N 49°56' W 000°36'919.2
2019-Jul-16 08:30N 49°48' W 000°31'918.9
2019-Jul-16 08:00N 49°39' W 000°25'1019.1
2019-Jul-16 07:30N 49°31' W 000°20'918.8
2019-Jul-16 07:00N 49°22' W 000°15'4 8.7
2019-Jul-16 06:30N 49°17' W 000°15'0 0.0
2019-Jul-16 06:00N 49°17' W 000°15'0 0.0
2019-Jul-16 05:30N 49°17' W 000°15'0 0.0
2019-Jul-16 05:00N 49°17' W 000°15'0 0.1
2019-Jul-16 04:30N 49°17' W 000°15'714.5
2019-Jul-16 04:00N 49°24' W 000°17'917.7
2019-Jul-16 03:30N 49°32' W 000°24'917.7
2019-Jul-16 03:00N 49°40' W 000°30'918.0
2019-Jul-16 02:30N 49°48' W 000°35'917.7
2019-Jul-16 02:00N 49°57' W 000°40'3215.6
2019-Jul-15 23:59N 50°27' W 000°53'714.9
2019-Jul-15 23:30N 50°34' W 000°56'715.0
2019-Jul-15 23:00N 50°41' W 001°00'713.8
2019-Jul-15 22:30N 50°47' W 001°06'2 4.1
2019-Jul-15 22:00N 50°49' W 001°06'0 0.0
2019-Jul-15 21:30N 50°49' W 001°06'0 0.0
2019-Jul-15 21:00N 50°49' W 001°06'0 0.6
2019-Jul-15 20:31N 50°49' W 001°06'611.2
2019-Jul-15 20:01N 50°44' W 001°02'918.1
2019-Jul-15 19:31N 50°35' W 000°57'2519.3
2019-Jul-15 18:12N 50°11' W 000°43'519.4
2019-Jul-15 17:56N 50°06' W 000°42'919.6
2019-Jul-15 17:28N 49°58' W 000°38'919.3
2019-Jul-15 17:00N 49°49' W 000°35'1019.3
2019-Jul-15 16:31N 49°40' W 000°31'1019.7
2019-Jul-15 16:00N 49°31' W 000°23'1019.8
2019-Jul-15 15:30N 49°23' W 000°16'510.7
2019-Jul-15 15:00N 49°17' W 000°15'0 0.0
2019-Jul-15 14:30N 49°17' W 000°15'0 0.0
2019-Jul-15 14:00N 49°17' W 000°15'0 0.0
2019-Jul-15 13:30N 49°17' W 000°15'0 0.0
2019-Jul-15 13:00N 49°17' W 000°15'3 6.5
2019-Jul-15 12:30N 49°21' W 000°14'816.6
2019-Jul-15 12:00N 49°28' W 000°19'918.5
2019-Jul-15 11:30N 49°37' W 000°24'918.5
2019-Jul-15 11:00N 49°46' W 000°29'918.7
2019-Jul-15 10:30N 49°55' W 000°33'1719.2
2019-Jul-15 09:38N 50°10' W 000°43'319.1
2019-Jul-15 09:30N 50°13' W 000°45'1119.3
2019-Jul-15 08:55N 50°23' W 000°51'1019.3
2019-Jul-15 08:26N 50°32' W 000°56'818.7
2019-Jul-15 08:00N 50°40' W 000°59'917.0
2019-Jul-15 07:30N 50°47' W 001°06'2 3.7
2019-Jul-15 07:00N 50°49' W 001°06'0 0.0
2019-Jul-15 06:31N 50°49' W 001°06'0 0.0
2019-Jul-15 06:00N 50°49' W 001°06'0 0.2
2019-Jul-15 05:30N 50°49' W 001°06'5 9.1
2019-Jul-15 05:01N 50°44' W 001°04'815.0
2019-Jul-15 04:30N 50°38' W 000°58'815.0
2019-Jul-15 04:00N 50°31' W 000°53'611.4
2019-Jul-15 03:30N 50°26' W 000°50'610.8
2019-Jul-15 02:58N 50°20' W 000°47'1511.1
2019-Jul-15 01:37N 50°06' W 000°41'411.7
2019-Jul-15 01:16N 50°02' W 000°39'311.8
2019-Jul-15 01:00N 49°59' W 000°37'611.8
2019-Jul-15 00:30N 49°53' W 000°34'612.0
2019-Jul-15 00:00N 49°48' W 000°30'611.9
2019-Jul-14 23:30N 49°42' W 000°27'611.5
2019-Jul-14 23:00N 49°37' W 000°23'511.2
2019-Jul-14 22:30N 49°32' W 000°21'611.3
2019-Jul-14 22:00N 49°26' W 000°18'611.1
2019-Jul-14 21:30N 49°21' W 000°15'4 7.8
2019-Jul-14 21:00N 49°17' W 000°15'0 0.0
2019-Jul-14 20:31N 49°17' W 000°15'0 0.0
2019-Jul-14 20:00N 49°17' W 000°15'0 0.0
2019-Jul-14 19:31N 49°17' W 000°15'4 7.6
2019-Jul-14 19:01N 49°21' W 000°14'917.5
2019-Jul-14 18:30N 49°29' W 000°20'918.2
2019-Jul-14 18:01N 49°37' W 000°26'918.6
2019-Jul-14 17:31N 49°46' W 000°32'918.6
2019-Jul-14 17:01N 49°54' W 000°38'918.0
2019-Jul-14 16:30N 50°03' W 000°42'1018.1
2019-Jul-14 15:57N 50°13' W 000°47'1119.1
2019-Jul-14 15:22N 50°23' W 000°51'718.9
2019-Jul-14 15:00N 50°30' W 000°54'918.7
2019-Jul-14 14:31N 50°39' W 000°58'816.4
2019-Jul-14 14:01N 50°46' W 001°05'3 6.2
2019-Jul-14 13:30N 50°49' W 001°06'0 0.0
2019-Jul-14 13:01N 50°49' W 001°06'0 0.0
2019-Jul-14 12:30N 50°49' W 001°06'1 1.1
2019-Jul-14 12:00N 50°49' W 001°07'612.9
2019-Jul-14 11:30N 50°43' W 001°02'918.4
2019-Jul-14 11:00N 50°34' W 000°57'1019.7
2019-Jul-14 10:30N 50°25' W 000°53'1819.7
2019-Jul-14 09:35N 50°08' W 000°43'619.8
2019-Jul-14 09:16N 50°02' W 000°40'519.7
2019-Jul-14 09:01N 49°57' W 000°37'1019.3
2019-Jul-14 08:30N 49°48' W 000°30'1019.5
2019-Jul-14 08:01N 49°40' W 000°23'1019.6
2019-Jul-14 07:31N 49°30' W 000°18'1019.1
2019-Jul-14 07:01N 49°21' W 000°15'4 7.7
2019-Jul-14 06:31N 49°17' W 000°15'0 0.0
2019-Jul-14 06:00N 49°17' W 000°15'0 0.0
2019-Jul-14 05:30N 49°17' W 000°15'0 0.0
2019-Jul-14 05:00N 49°17' W 000°15'3 6.8
2019-Jul-14 04:31N 49°21' W 000°14'816.3
2019-Jul-14 04:00N 49°29' W 000°17'816.8
2019-Jul-14 03:30N 49°36' W 000°22'917.4
2019-Jul-14 03:00N 49°45' W 000°27'917.4
2019-Jul-14 02:30N 49°53' W 000°31'3616.5
2019-Jul-14 00:18N 50°27' W 000°52'415.1
2019-Jul-14 00:00N 50°31' W 000°54'815.2
2019-Jul-13 23:31N 50°38' W 000°59'714.8
2019-Jul-13 23:00N 50°44' W 001°04'4 8.7
2019-Jul-13 22:31N 50°49' W 001°06'0 0.0
2019-Jul-13 22:00N 50°49' W 001°06'0 0.0
2019-Jul-13 21:31N 50°49' W 001°06'0 0.0
2019-Jul-13 21:00N 50°49' W 001°06'0 0.0
2019-Jul-13 20:31N 50°49' W 001°06'2 4.8
2019-Jul-13 20:01N 50°46' W 001°06'917.9
2019-Jul-13 19:31N 50°38' W 000°59'815.4
2019-Jul-13 19:00N 50°31' W 000°54'1019.2
2019-Jul-13 18:30N 50°22' W 000°48'1319.0
2019-Jul-13 17:48N 50°10' W 000°40'518.7
2019-Jul-13 17:30N 50°05' W 000°36'1019.0
2019-Jul-13 17:00N 49°56' W 000°31'1019.1
2019-Jul-13 16:30N 49°47' W 000°27'918.9
2019-Jul-13 16:00N 49°38' W 000°23'919.0
2019-Jul-13 15:30N 49°29' W 000°19'918.3
2019-Jul-13 15:00N 49°20' W 000°14'3 5.8
2019-Jul-13 14:30N 49°17' W 000°15'0 0.0
2019-Jul-13 14:00N 49°17' W 000°15'0 0.0
2019-Jul-13 13:30N 49°17' W 000°15'0 0.0
2019-Jul-13 13:00N 49°17' W 000°15'4 8.6
2019-Jul-13 12:31N 49°22' W 000°15'919.0
2019-Jul-13 12:01N 49°30' W 000°20'1019.2
2019-Jul-13 11:30N 49°40' W 000°25'1018.9
2019-Jul-13 11:00N 49°49' W 000°30'919.0
2019-Jul-13 10:31N 49°57' W 000°35'1119.3
2019-Jul-13 09:56N 50°08' W 000°39'2219.7
2019-Jul-13 08:50N 50°28' W 000°52'719.7
2019-Jul-13 08:30N 50°34' W 000°56'918.8
2019-Jul-13 08:01N 50°43' W 001°02'612.6
2019-Jul-13 07:30N 50°48' W 001°07'1 1.7
2019-Jul-13 07:00N 50°49' W 001°06'0 0.0
2019-Jul-13 06:30N 50°49' W 001°06'0 0.0
2019-Jul-13 06:00N 50°49' W 001°06'0 0.2
2019-Jul-13 05:31N 50°49' W 001°06'510.9
2019-Jul-13 05:01N 50°44' W 001°03'816.6
2019-Jul-13 04:31N 50°36' W 000°57'815.0
2019-Jul-13 04:00N 50°29' W 000°54'610.4
2019-Jul-13 03:25N 50°23' W 000°52'1810.7
2019-Jul-13 01:43N 50°05' W 000°45'211.2
2019-Jul-13 01:30N 50°03' W 000°43'611.2
2019-Jul-13 01:00N 49°58' W 000°40'611.6
2019-Jul-13 00:30N 49°52' W 000°37'611.5
2019-Jul-13 00:00N 49°47' W 000°33'611.7
2019-Jul-12 23:30N 49°42' W 000°29'611.7
2019-Jul-12 23:00N 49°37' W 000°26'611.4
2019-Jul-12 22:30N 49°32' W 000°21'611.4
2019-Jul-12 22:00N 49°26' W 000°17'611.5
2019-Jul-12 21:30N 49°21' W 000°15'4 7.2
2019-Jul-12 21:00N 49°17' W 000°15'0 0.0
2019-Jul-12 20:30N 49°17' W 000°15'0 0.0
2019-Jul-12 20:00N 49°17' W 000°15'0 0.0
2019-Jul-12 19:30N 49°17' W 000°15'4 8.0
2019-Jul-12 19:00N 49°21' W 000°14'1019.1
2019-Jul-12 18:30N 49°30' W 000°18'1020.3
2019-Jul-12 18:00N 49°40' W 000°22'1020.3
2019-Jul-12 17:30N 49°50' W 000°26'1020.6
2019-Jul-12 17:00N 50°00' W 000°31'1020.4
2019-Jul-12 16:30N 50°10' W 000°36'1020.9
2019-Jul-12 16:00N 50°19' W 000°45'1020.4
2019-Jul-12 15:30N 50°28' W 000°52'1020.2
2019-Jul-12 15:00N 50°37' W 000°58'816.2
2019-Jul-12 14:30N 50°44' W 001°04'5 9.5
2019-Jul-12 14:00N 50°49' W 001°06'0 0.0
2019-Jul-12 13:30N 50°49' W 001°06'0 0.0
2019-Jul-12 13:00N 50°49' W 001°06'0 0.0
2019-Jul-12 12:30N 50°49' W 001°06'1 2.4
2019-Jul-12 12:00N 50°48' W 001°07'713.8
2019-Jul-12 11:30N 50°43' W 000°59'917.5
2019-Jul-12 11:00N 50°34' W 000°57'918.6
2019-Jul-12 10:30N 50°25' W 000°52'2518.6
2019-Jul-12 09:09N 50°02' W 000°36'319.6
2019-Jul-12 09:00N 49°59' W 000°35'1019.6
2019-Jul-12 08:30N 49°50' W 000°30'1019.3
2019-Jul-12 08:00N 49°41' W 000°24'918.9
2019-Jul-12 07:30N 49°33' W 000°19'918.6
2019-Jul-12 07:00N 49°23' W 000°16'612.2
2019-Jul-12 06:30N 49°17' W 000°15'0 0.0
2019-Jul-12 06:00N 49°17' W 000°15'0 0.0
2019-Jul-12 05:30N 49°17' W 000°15'0 0.0
2019-Jul-12 05:00N 49°17' W 000°15'0 0.2
2019-Jul-12 04:30N 49°17' W 000°15'714.2
2019-Jul-12 04:01N 49°24' W 000°16'816.2
2019-Jul-12 03:30N 49°32' W 000°20'714.1
2019-Jul-12 03:00N 49°39' W 000°24'713.0
2019-Jul-12 02:30N 49°44' W 000°29'1616.3
2019-Jul-12 01:30N 49°59' W 000°39'815.6
2019-Jul-12 01:00N 50°06' W 000°44'815.9
2019-Jul-12 00:30N 50°14' W 000°47'916.1
2019-Jul-11 23:57N 50°23' W 000°50'716.0
2019-Jul-11 23:30N 50°30' W 000°53'815.8
2019-Jul-11 23:00N 50°37' W 000°57'714.4
2019-Jul-11 22:30N 50°44' W 001°02'611.5
2019-Jul-11 22:00N 50°49' W 001°07'1 1.1
2019-Jul-11 21:30N 50°49' W 001°06'0 0.0
2019-Jul-11 21:00N 50°49' W 001°06'0 0.0
2019-Jul-11 20:30N 50°49' W 001°06'2 3.0
2019-Jul-11 20:00N 50°47' W 001°06'816.5
2019-Jul-11 19:31N 50°40' W 000°60'1019.8
2019-Jul-11 19:01N 50°31' W 000°53'1019.3
2019-Jul-11 18:30N 50°23' W 000°46'1019.4
2019-Jul-11 18:00N 50°14' W 000°39'1019.4
2019-Jul-11 17:30N 50°05' W 000°33'1019.1
2019-Jul-11 17:00N 49°56' W 000°29'1019.2
2019-Jul-11 16:30N 49°47' W 000°26'1019.2
2019-Jul-11 16:00N 49°37' W 000°22'919.0
2019-Jul-11 15:30N 49°28' W 000°18'917.6
2019-Jul-11 15:01N 49°20' W 000°14'2 4.7
2019-Jul-11 14:30N 49°17' W 000°15'0 0.0
2019-Jul-11 14:00N 49°17' W 000°15'0 0.0
2019-Jul-11 13:30N 49°17' W 000°15'0 0.0
2019-Jul-11 13:00N 49°17' W 000°15'4 7.3
2019-Jul-11 12:30N 49°21' W 000°14'918.6
2019-Jul-11 12:00N 49°30' W 000°18'1019.4
2019-Jul-11 11:30N 49°39' W 000°24'919.0
2019-Jul-11 11:00N 49°48' W 000°30'918.4
2019-Jul-11 10:30N 49°56' W 000°35'918.4
2019-Jul-11 10:00N 50°05' W 000°40'1018.6
2019-Jul-11 09:29N 50°14' W 000°45'1519.1
2019-Jul-11 08:41N 50°29' W 000°52'318.7
2019-Jul-11 08:30N 50°32' W 000°54'918.6
2019-Jul-11 08:00N 50°40' W 000°59'816.4
2019-Jul-11 07:31N 50°47' W 001°06'2 3.3
2019-Jul-11 07:00N 50°49' W 001°06'0 0.0
2019-Jul-11 06:30N 50°49' W 001°06'0 0.0
2019-Jul-11 06:00N 50°49' W 001°06'0 0.6
2019-Jul-11 05:30N 50°49' W 001°06'510.8
2019-Jul-11 05:01N 50°44' W 001°03'815.7
2019-Jul-11 04:30N 50°36' W 000°58'815.5
2019-Jul-11 04:00N 50°29' W 000°55'815.5
2019-Jul-11 03:30N 50°22' W 000°51'610.9
2019-Jul-11 03:00N 50°16' W 000°48'510.5
2019-Jul-11 02:31N 50°11' W 000°46'510.2
2019-Jul-11 02:01N 50°07' W 000°43'610.3
2019-Jul-11 01:27N 50°01' W 000°39'510.7
2019-Jul-11 01:01N 49°57' W 000°37'510.8
2019-Jul-11 00:31N 49°52' W 000°35'611.0
2019-Jul-11 00:01N 49°47' W 000°33'611.7
2019-Jul-10 23:30N 49°41' W 000°29'611.6
2019-Jul-10 23:01N 49°36' W 000°26'611.3
2019-Jul-10 22:31N 49°30' W 000°23'611.8
2019-Jul-10 22:00N 49°25' W 000°18'611.3
2019-Jul-10 21:31N 49°20' W 000°15'3 5.7
2019-Jul-10 21:00N 49°17' W 000°15'0 0.0
2019-Jul-10 20:30N 49°17' W 000°15'0 0.0
2019-Jul-10 20:00N 49°17' W 000°15'0 0.0
2019-Jul-10 19:30N 49°17' W 000°15'0 0.0
2019-Jul-10 19:00N 49°17' W 000°15'0 0.0
2019-Jul-10 18:30N 49°17' W 000°15'0 0.0
2019-Jul-10 18:00N 49°17' W 000°15'0 0.0
2019-Jul-10 17:30N 49°17' W 000°15'0 0.0
2019-Jul-10 17:00N 49°17' W 000°15'0 0.0
2019-Jul-10 16:30N 49°17' W 000°15'0 0.0
2019-Jul-10 16:00N 49°17' W 000°15'0 0.0
2019-Jul-10 15:30N 49°17' W 000°15'0 0.0
2019-Jul-10 15:00N 49°17' W 000°15'0 0.0
2019-Jul-10 14:30N 49°17' W 000°15'0 0.0
2019-Jul-10 14:00N 49°17' W 000°15'0 0.0
2019-Jul-10 13:30N 49°17' W 000°15'0 0.0
2019-Jul-10 13:00N 49°17' W 000°15'4 7.7
2019-Jul-10 12:30N 49°21' W 000°14'816.8
2019-Jul-10 12:01N 49°29' W 000°18'917.9
2019-Jul-10 11:31N 49°37' W 000°23'918.8
2019-Jul-10 11:00N 49°47' W 000°27'918.9
2019-Jul-10 10:31N 49°56' W 000°31'918.6
2019-Jul-10 10:01N 50°04' W 000°36'918.6
2019-Jul-10 09:31N 50°13' W 000°41'918.4
2019-Jul-10 09:00N 50°21' W 000°48'919.0
2019-Jul-10 08:31N 50°30' W 000°53'918.9
2019-Jul-10 08:01N 50°39' W 000°58'917.4
2019-Jul-10 07:31N 50°46' W 001°06'2 4.8
2019-Jul-10 07:00N 50°49' W 001°06'0 0.0
2019-Jul-10 06:30N 50°49' W 001°06'0 0.0
2019-Jul-10 06:00N 50°49' W 001°06'0 0.7
2019-Jul-10 05:30N 50°49' W 001°06'611.8
2019-Jul-10 05:00N 50°43' W 001°03'815.0
2019-Jul-10 04:30N 50°36' W 000°58'815.2
2019-Jul-10 04:00N 50°29' W 000°53'714.8
2019-Jul-10 03:31N 50°23' W 000°49'815.2
2019-Jul-10 03:00N 50°15' W 000°45'1014.7
2019-Jul-10 02:21N 50°06' W 000°39'310.1
2019-Jul-10 02:00N 50°03' W 000°38'510.2
2019-Jul-10 01:30N 49°58' W 000°35'510.0
2019-Jul-10 01:00N 49°54' W 000°32'510.1
2019-Jul-10 00:30N 49°49' W 000°30'510.3
2019-Jul-10 00:00N 49°44' W 000°27'510.4
2019-Jul-09 23:30N 49°39' W 000°25'510.1
2019-Jul-09 23:00N 49°34' W 000°24'4 8.8
2019-Jul-09 22:30N 49°30' W 000°22'611.2
2019-Jul-09 22:00N 49°25' W 000°17'510.7
2019-Jul-09 21:30N 49°20' W 000°15'3 5.2
2019-Jul-09 21:00N 49°17' W 000°15'0 0.0
2019-Jul-09 20:30N 49°17' W 000°15'0 0.0
2019-Jul-09 20:00N 49°17' W 000°15'0 0.0
2019-Jul-09 19:30N 49°17' W 000°15'4 8.6
2019-Jul-09 19:01N 49°22' W 000°15'816.3
2019-Jul-09 18:31N 49°29' W 000°19'917.9
2019-Jul-09 18:00N 49°38' W 000°24'918.4
2019-Jul-09 17:30N 49°47' W 000°27'918.6
2019-Jul-09 17:00N 49°56' W 000°31'918.8
2019-Jul-09 16:30N 50°05' W 000°35'918.8
2019-Jul-09 16:00N 50°13' W 000°40'1018.7
2019-Jul-09 15:28N 50°23' W 000°46'918.9
2019-Jul-09 15:00N 50°30' W 000°53'918.3
2019-Jul-09 14:30N 50°39' W 000°58'816.5
2019-Jul-09 14:00N 50°46' W 001°05'3 6.0
2019-Jul-09 13:31N 50°49' W 001°06'0 0.0
2019-Jul-09 13:01N 50°49' W 001°06'0 0.0
2019-Jul-09 12:31N 50°49' W 001°06'1 1.7
2019-Jul-09 12:01N 50°48' W 001°07'714.2
2019-Jul-09 11:30N 50°42' W 001°02'817.0
2019-Jul-09 11:00N 50°34' W 000°57'917.4
2019-Jul-09 10:30N 50°26' W 000°53'918.6
2019-Jul-09 10:00N 50°17' W 000°49'1019.4
2019-Jul-09 09:30N 50°07' W 000°45'1019.8
2019-Jul-09 09:00N 49°58' W 000°39'1020.0
2019-Jul-09 08:30N 49°49' W 000°33'1020.0
2019-Jul-09 08:00N 49°40' W 000°27'1019.7
2019-Jul-09 07:30N 49°31' W 000°21'1019.9
2019-Jul-09 07:00N 49°21' W 000°15'4 8.2
2019-Jul-09 06:31N 49°17' W 000°15'0 0.0
2019-Jul-09 06:00N 49°17' W 000°15'0 0.0
2019-Jul-09 05:31N 49°17' W 000°15'0 0.0
2019-Jul-09 05:01N 49°17' W 000°15'0 0.1
2019-Jul-09 04:31N 49°17' W 000°15'611.4
2019-Jul-09 04:00N 49°23' W 000°15'714.5
2019-Jul-09 03:31N 49°29' W 000°20'714.4
2019-Jul-09 03:00N 49°36' W 000°24'714.5
2019-Jul-09 02:30N 49°43' W 000°28'714.6
2019-Jul-09 02:00N 49°50' W 000°30'714.7
2019-Jul-09 01:30N 49°57' W 000°34'714.9
2019-Jul-09 01:00N 50°04' W 000°37'714.8
2019-Jul-09 00:30N 50°11' W 000°41'714.8
2019-Jul-09 00:00N 50°19' W 000°44'714.8
2019-Jul-08 23:30N 50°25' W 000°49'815.0
2019-Jul-08 23:00N 50°32' W 000°54'714.9
2019-Jul-08 22:30N 50°39' W 000°58'714.3
2019-Jul-08 22:01N 50°45' W 001°05'4 8.3
2019-Jul-08 21:30N 50°49' W 001°06'0 0.0
2019-Jul-08 21:00N 50°49' W 001°06'0 0.0
2019-Jul-08 20:30N 50°49' W 001°06'1 1.7
2019-Jul-08 20:00N 50°48' W 001°07'713.6
2019-Jul-08 19:31N 50°42' W 001°01'917.5
2019-Jul-08 19:01N 50°34' W 000°57'1019.4
2019-Jul-08 18:30N 50°24' W 000°55'1019.1
2019-Jul-08 18:00N 50°16' W 000°48'1019.8
2019-Jul-08 17:30N 50°07' W 000°41'1020.2
2019-Jul-08 17:00N 49°58' W 000°35'1020.2
2019-Jul-08 16:31N 49°48' W 000°29'1020.0
2019-Jul-08 16:01N 49°39' W 000°25'1019.6
2019-Jul-08 15:30N 49°30' W 000°19'919.0
2019-Jul-08 15:00N 49°21' W 000°15'3 6.4
2019-Jul-08 14:30N 49°17' W 000°15'0 0.0
2019-Jul-08 14:01N 49°17' W 000°15'0 0.0
2019-Jul-08 13:31N 49°17' W 000°15'0 0.0
2019-Jul-08 13:01N 49°17' W 000°15'5 9.1
2019-Jul-08 12:31N 49°22' W 000°14'918.6
2019-Jul-08 12:00N 49°31' W 000°19'918.6
2019-Jul-08 11:30N 49°39' W 000°26'1020.3
2019-Jul-08 11:00N 49°48' W 000°33'1020.2
2019-Jul-08 10:30N 49°57' W 000°41'1019.6
2019-Jul-08 10:00N 50°05' W 000°48'1018.1
2019-Jul-08 09:26N 50°16' W 000°49'819.3
2019-Jul-08 09:00N 50°24' W 000°52'918.9
2019-Jul-08 08:30N 50°33' W 000°55'918.7
2019-Jul-08 08:01N 50°42' W 000°58'815.9
2019-Jul-08 07:30N 50°48' W 001°07'1 2.2
2019-Jul-08 07:00N 50°49' W 001°06'0 0.0
2019-Jul-08 06:30N 50°49' W 001°06'0 0.0
2019-Jul-08 06:00N 50°49' W 001°06'0 0.2
2019-Jul-08 05:31N 50°49' W 001°06'4 8.0
2019-Jul-08 05:00N 50°45' W 001°05'816.3
2019-Jul-08 04:30N 50°38' W 000°58'714.8
2019-Jul-08 04:01N 50°31' W 000°55'815.0
2019-Jul-08 03:30N 50°24' W 000°51'815.0
2019-Jul-08 03:00N 50°17' W 000°46'715.0
2019-Jul-08 02:31N 50°10' W 000°42'612.0
2019-Jul-08 02:00N 50°04' W 000°39'510.3
2019-Jul-08 01:30N 49°59' W 000°35'510.4
2019-Jul-08 01:00N 49°54' W 000°33'510.4
2019-Jul-08 00:30N 49°49' W 000°31'510.2
2019-Jul-08 00:00N 49°45' W 000°28'510.1
2019-Jul-07 23:30N 49°40' W 000°25'5 9.9
2019-Jul-07 23:00N 49°36' W 000°21'5 9.3
2019-Jul-07 22:30N 49°31' W 000°21'510.2
2019-Jul-07 22:00N 49°26' W 000°18'510.2
2019-Jul-07 21:30N 49°22' W 000°15'4 8.4
2019-Jul-07 21:00N 49°17' W 000°15'0 0.0
2019-Jul-07 20:30N 49°17' W 000°15'0 0.0
2019-Jul-07 20:00N 49°17' W 000°15'0 0.0
2019-Jul-07 19:30N 49°17' W 000°15'5 9.4
2019-Jul-07 19:00N 49°22' W 000°15'917.8
2019-Jul-07 18:30N 49°30' W 000°21'917.8
2019-Jul-07 18:00N 49°38' W 000°26'917.6
2019-Jul-07 17:30N 49°47' W 000°30'5017.9
2019-Jul-07 14:44N 50°33' W 000°56'418.2
2019-Jul-07 14:30N 50°37' W 000°59'917.1
2019-Jul-07 14:00N 50°45' W 001°05'4 7.7
2019-Jul-07 13:30N 50°49' W 001°06'0 0.0
2019-Jul-07 13:01N 50°49' W 001°06'0 0.0
2019-Jul-07 12:30N 50°49' W 001°06'0 1.0
2019-Jul-07 12:00N 50°49' W 001°07'713.8
2019-Jul-07 11:30N 50°42' W 001°02'917.7
2019-Jul-07 11:01N 50°34' W 000°56'1018.2
2019-Jul-07 10:29N 50°25' W 000°51'1219.5
2019-Jul-07 09:51N 50°13' W 000°48'919.4
2019-Jul-07 09:23N 50°04' W 000°44'719.4
2019-Jul-07 09:00N 49°58' W 000°40'1019.6
2019-Jul-07 08:30N 49°48' W 000°34'1019.9
2019-Jul-07 08:00N 49°39' W 000°28'1019.6
2019-Jul-07 07:30N 49°31' W 000°22'1019.5
2019-Jul-07 07:00N 49°22' W 000°15'4 8.6
2019-Jul-07 06:30N 49°17' W 000°15'0 0.0
2019-Jul-07 06:00N 49°17' W 000°15'0 0.0
2019-Jul-07 05:30N 49°17' W 000°15'0 0.0
2019-Jul-07 05:00N 49°17' W 000°15'0 0.2
2019-Jul-07 04:30N 49°17' W 000°15'612.9
2019-Jul-07 04:00N 49°24' W 000°16'714.0
2019-Jul-07 03:31N 49°30' W 000°20'713.9
2019-Jul-07 03:00N 49°37' W 000°24'1414.2
2019-Jul-07 02:00N 49°50' W 000°30'814.8
2019-Jul-07 01:28N 49°58' W 000°33'715.2
2019-Jul-07 01:00N 50°04' W 000°37'815.4
2019-Jul-07 00:29N 50°12' W 000°42'1715.0
2019-Jul-06 23:23N 50°27' W 000°51'615.8
2019-Jul-06 23:00N 50°33' W 000°55'815.7
2019-Jul-06 22:30N 50°40' W 000°60'815.6
2019-Jul-06 22:01N 50°47' W 001°06'2 4.2
2019-Jul-06 21:31N 50°49' W 001°06'0 0.0
2019-Jul-06 21:00N 50°49' W 001°06'0 0.0
2019-Jul-06 20:30N 50°49' W 001°06'1 2.4
2019-Jul-06 20:01N 50°48' W 001°07'713.4
2019-Jul-06 19:31N 50°43' W 000°59'816.9
2019-Jul-06 19:00N 50°35' W 000°56'918.2
2019-Jul-06 18:30N 50°26' W 000°52'918.1
2019-Jul-06 18:01N 50°17' W 000°47'918.6
2019-Jul-06 17:31N 50°09' W 000°42'918.8
2019-Jul-06 17:00N 49°60' W 000°38'1019.1
2019-Jul-06 16:30N 49°51' W 000°33'1019.2
2019-Jul-06 16:01N 49°42' W 000°28'1019.0
2019-Jul-06 15:30N 49°33' W 000°22'918.7
2019-Jul-06 15:01N 49°24' W 000°17'714.0
2019-Jul-06 14:30N 49°17' W 000°15'0 0.0
2019-Jul-06 14:00N 49°17' W 000°15'0 0.0
2019-Jul-06 13:30N 49°17' W 000°15'0 0.0
2019-Jul-06 13:00N 49°17' W 000°15'5 9.4
2019-Jul-06 12:31N 49°22' W 000°14'1019.4
2019-Jul-06 12:00N 49°31' W 000°19'1019.3
2019-Jul-06 11:30N 49°40' W 000°26'919.0
2019-Jul-06 11:01N 49°49' W 000°30'  
Track history (hours):
 
Tides and Currents Weather Stations Pressure Air Temp Water Temp Dewpoint Dewpoint Depression Visibility Wind Speed Wind Dir Waves Ship Positions

Normandie

Operator: Brittany Ferries

Last reported at 2019-Jul-16 11:00 UTC. Time now 2019-Jul-16 11:09 UTC.
Position N 50°33' W 000°55'.

Length 161 m; beam 27 m.

Type: Ship. MMSI: 227273000.

Date/timePositionNaut miles runAvg speedWind from/ knotsBaromVisibWave heightAir tempDewpointWater temp
2019-Jul-16 11:00N 50°33' W 000°55'2619.2
2019-Jul-16 09:39N 50°09' W 000°42'319.8
2019-Jul-16 09:29N 50°06' W 000°42'1019.2
2019-Jul-16 08:59N 49°56' W 000°36'919.2
2019-Jul-16 08:30N 49°48' W 000°31'918.9
2019-Jul-16 08:00N 49°39' W 000°25'1019.1
2019-Jul-16 07:30N 49°31' W 000°20'918.8
2019-Jul-16 07:00N 49°22' W 000°15'4 8.7
2019-Jul-16 06:30N 49°17' W 000°15'0 0.0
2019-Jul-16 06:00N 49°17' W 000°15'0 0.0
2019-Jul-16 05:30N 49°17' W 000°15'0 0.0
2019-Jul-16 05:00N 49°17' W 000°15'0 0.1
2019-Jul-16 04:30N 49°17' W 000°15'714.5
2019-Jul-16 04:00N 49°24' W 000°17'917.7
2019-Jul-16 03:30N 49°32' W 000°24'917.7
2019-Jul-16 03:00N 49°40' W 000°30'918.0
2019-Jul-16 02:30N 49°48' W 000°35'917.7
2019-Jul-16 02:00N 49°57' W 000°40'3215.6
2019-Jul-15 23:59N 50°27' W 000°53'714.9
2019-Jul-15 23:30N 50°34' W 000°56'715.0
2019-Jul-15 23:00N 50°41' W 001°00'713.8
2019-Jul-15 22:30N 50°47' W 001°06'2 4.1
2019-Jul-15 22:00N 50°49' W 001°06'0 0.0
2019-Jul-15 21:30N 50°49' W 001°06'0 0.0
2019-Jul-15 21:00N 50°49' W 001°06'0 0.6
2019-Jul-15 20:31N 50°49' W 001°06'611.2
2019-Jul-15 20:01N 50°44' W 001°02'918.1
2019-Jul-15 19:31N 50°35' W 000°57'2519.3
2019-Jul-15 18:12N 50°11' W 000°43'519.4
2019-Jul-15 17:56N 50°06' W 000°42'919.6
2019-Jul-15 17:28N 49°58' W 000°38'919.3
2019-Jul-15 17:00N 49°49' W 000°35'1019.3
2019-Jul-15 16:31N 49°40' W 000°31'1019.7
2019-Jul-15 16:00N 49°31' W 000°23'1019.8
2019-Jul-15 15:30N 49°23' W 000°16'510.7
2019-Jul-15 15:00N 49°17' W 000°15'0 0.0
2019-Jul-15 14:30N 49°17' W 000°15'0 0.0
2019-Jul-15 14:00N 49°17' W 000°15'0 0.0
2019-Jul-15 13:30N 49°17' W 000°15'0 0.0
2019-Jul-15 13:00N 49°17' W 000°15'3 6.5
2019-Jul-15 12:30N 49°21' W 000°14'816.6
2019-Jul-15 12:00N 49°28' W 000°19'918.5
2019-Jul-15 11:30N 49°37' W 000°24'918.5
2019-Jul-15 11:00N 49°46' W 000°29'918.7
2019-Jul-15 10:30N 49°55' W 000°33'1719.2
2019-Jul-15 09:38N 50°10' W 000°43'319.1
2019-Jul-15 09:30N 50°13' W 000°45'1119.3
2019-Jul-15 08:55N 50°23' W 000°51'1019.3
2019-Jul-15 08:26N 50°32' W 000°56'818.7
2019-Jul-15 08:00N 50°40' W 000°59'917.0
2019-Jul-15 07:30N 50°47' W 001°06'2 3.7
2019-Jul-15 07:00N 50°49' W 001°06'0 0.0
2019-Jul-15 06:31N 50°49' W 001°06'0 0.0
2019-Jul-15 06:00N 50°49' W 001°06'0 0.2
2019-Jul-15 05:30N 50°49' W 001°06'5 9.1
2019-Jul-15 05:01N 50°44' W 001°04'815.0
2019-Jul-15 04:30N 50°38' W 000°58'815.0
2019-Jul-15 04:00N 50°31' W 000°53'611.4
2019-Jul-15 03:30N 50°26' W 000°50'610.8
2019-Jul-15 02:58N 50°20' W 000°47'1511.1
2019-Jul-15 01:37N 50°06' W 000°41'411.7
2019-Jul-15 01:16N 50°02' W 000°39'311.8
2019-Jul-15 01:00N 49°59' W 000°37'611.8
2019-Jul-15 00:30N 49°53' W 000°34'612.0
2019-Jul-15 00:00N 49°48' W 000°30'611.9
2019-Jul-14 23:30N 49°42' W 000°27'611.5
2019-Jul-14 23:00N 49°37' W 000°23'511.2
2019-Jul-14 22:30N 49°32' W 000°21'611.3
2019-Jul-14 22:00N 49°26' W 000°18'611.1
2019-Jul-14 21:30N 49°21' W 000°15'4 7.8
2019-Jul-14 21:00N 49°17' W 000°15'0 0.0
2019-Jul-14 20:31N 49°17' W 000°15'0 0.0
2019-Jul-14 20:00N 49°17' W 000°15'0 0.0
2019-Jul-14 19:31N 49°17' W 000°15'4 7.6
2019-Jul-14 19:01N 49°21' W 000°14'917.5
2019-Jul-14 18:30N 49°29' W 000°20'918.2
2019-Jul-14 18:01N 49°37' W 000°26'918.6
2019-Jul-14 17:31N 49°46' W 000°32'918.6
2019-Jul-14 17:01N 49°54' W 000°38'918.0
2019-Jul-14 16:30N 50°03' W 000°42'1018.1
2019-Jul-14 15:57N 50°13' W 000°47'1119.1
2019-Jul-14 15:22N 50°23' W 000°51'718.9
2019-Jul-14 15:00N 50°30' W 000°54'918.7
2019-Jul-14 14:31N 50°39' W 000°58'816.4
2019-Jul-14 14:01N 50°46' W 001°05'3 6.2
2019-Jul-14 13:30N 50°49' W 001°06'0 0.0
2019-Jul-14 13:01N 50°49' W 001°06'0 0.0
2019-Jul-14 12:30N 50°49' W 001°06'1 1.1
2019-Jul-14 12:00N 50°49' W 001°07'612.9
2019-Jul-14 11:30N 50°43' W 001°02'918.4
2019-Jul-14 11:00N 50°34' W 000°57'1019.7
2019-Jul-14 10:30N 50°25' W 000°53'1819.7
2019-Jul-14 09:35N 50°08' W 000°43'619.8
2019-Jul-14 09:16N 50°02' W 000°40'519.7
2019-Jul-14 09:01N 49°57' W 000°37'1019.3
2019-Jul-14 08:30N 49°48' W 000°30'1019.5
2019-Jul-14 08:01N 49°40' W 000°23'1019.6
2019-Jul-14 07:31N 49°30' W 000°18'1019.1
2019-Jul-14 07:01N 49°21' W 000°15'4 7.7
2019-Jul-14 06:31N 49°17' W 000°15'0 0.0
2019-Jul-14 06:00N 49°17' W 000°15'0 0.0
2019-Jul-14 05:30N 49°17' W 000°15'0 0.0
2019-Jul-14 05:00N 49°17' W 000°15'3 6.8
2019-Jul-14 04:31N 49°21' W 000°14'816.3
2019-Jul-14 04:00N 49°29' W 000°17'816.8
2019-Jul-14 03:30N 49°36' W 000°22'917.4
2019-Jul-14 03:00N 49°45' W 000°27'917.4
2019-Jul-14 02:30N 49°53' W 000°31'3616.5
2019-Jul-14 00:18N 50°27' W 000°52'415.1
2019-Jul-14 00:00N 50°31' W 000°54'815.2
2019-Jul-13 23:31N 50°38' W 000°59'714.8
2019-Jul-13 23:00N 50°44' W 001°04'4 8.7
2019-Jul-13 22:31N 50°49' W 001°06'0 0.0
2019-Jul-13 22:00N 50°49' W 001°06'0 0.0
2019-Jul-13 21:31N 50°49' W 001°06'0 0.0
2019-Jul-13 21:00N 50°49' W 001°06'0 0.0
2019-Jul-13 20:31N 50°49' W 001°06'2 4.8
2019-Jul-13 20:01N 50°46' W 001°06'917.9
2019-Jul-13 19:31N 50°38' W 000°59'815.4
2019-Jul-13 19:00N 50°31' W 000°54'1019.2
2019-Jul-13 18:30N 50°22' W 000°48'1319.0
2019-Jul-13 17:48N 50°10' W 000°40'518.7
2019-Jul-13 17:30N 50°05' W 000°36'1019.0
2019-Jul-13 17:00N 49°56' W 000°31'1019.1
2019-Jul-13 16:30N 49°47' W 000°27'918.9
2019-Jul-13 16:00N 49°38' W 000°23'919.0
2019-Jul-13 15:30N 49°29' W 000°19'918.3
2019-Jul-13 15:00N 49°20' W 000°14'3 5.8
2019-Jul-13 14:30N 49°17' W 000°15'0 0.0
2019-Jul-13 14:00N 49°17' W 000°15'0 0.0
2019-Jul-13 13:30N 49°17' W 000°15'0 0.0
2019-Jul-13 13:00N 49°17' W 000°15'4 8.6
2019-Jul-13 12:31N 49°22' W 000°15'919.0
2019-Jul-13 12:01N 49°30' W 000°20'1019.2
2019-Jul-13 11:30N 49°40' W 000°25'1018.9
2019-Jul-13 11:00N 49°49' W 000°30'919.0
2019-Jul-13 10:31N 49°57' W 000°35'1119.3
2019-Jul-13 09:56N 50°08' W 000°39'2219.7
2019-Jul-13 08:50N 50°28' W 000°52'719.7
2019-Jul-13 08:30N 50°34' W 000°56'918.8
2019-Jul-13 08:01N 50°43' W 001°02'612.6
2019-Jul-13 07:30N 50°48' W 001°07'1 1.7
2019-Jul-13 07:00N 50°49' W 001°06'0 0.0
2019-Jul-13 06:30N 50°49' W 001°06'0 0.0
2019-Jul-13 06:00N 50°49' W 001°06'0 0.2
2019-Jul-13 05:31N 50°49' W 001°06'510.9
2019-Jul-13 05:01N 50°44' W 001°03'816.6
2019-Jul-13 04:31N 50°36' W 000°57'815.0
2019-Jul-13 04:00N 50°29' W 000°54'610.4
2019-Jul-13 03:25N 50°23' W 000°52'1810.7
2019-Jul-13 01:43N 50°05' W 000°45'211.2
2019-Jul-13 01:30N 50°03' W 000°43'611.2
2019-Jul-13 01:00N 49°58' W 000°40'611.6
2019-Jul-13 00:30N 49°52' W 000°37'611.5
2019-Jul-13 00:00N 49°47' W 000°33'611.7
2019-Jul-12 23:30N 49°42' W 000°29'611.7
2019-Jul-12 23:00N 49°37' W 000°26'611.4
2019-Jul-12 22:30N 49°32' W 000°21'611.4
2019-Jul-12 22:00N 49°26' W 000°17'611.5
2019-Jul-12 21:30N 49°21' W 000°15'4 7.2
2019-Jul-12 21:00N 49°17' W 000°15'0 0.0
2019-Jul-12 20:30N 49°17' W 000°15'0 0.0
2019-Jul-12 20:00N 49°17' W 000°15'0 0.0
2019-Jul-12 19:30N 49°17' W 000°15'4 8.0
2019-Jul-12 19:00N 49°21' W 000°14'1019.1
2019-Jul-12 18:30N 49°30' W 000°18'1020.3
2019-Jul-12 18:00N 49°40' W 000°22'1020.3
2019-Jul-12 17:30N 49°50' W 000°26'1020.6
2019-Jul-12 17:00N 50°00' W 000°31'1020.4
2019-Jul-12 16:30N 50°10' W 000°36'1020.9
2019-Jul-12 16:00N 50°19' W 000°45'1020.4
2019-Jul-12 15:30N 50°28' W 000°52'1020.2
2019-Jul-12 15:00N 50°37' W 000°58'816.2
2019-Jul-12 14:30N 50°44' W 001°04'5 9.5
2019-Jul-12 14:00N 50°49' W 001°06'0 0.0
2019-Jul-12 13:30N 50°49' W 001°06'0 0.0
2019-Jul-12 13:00N 50°49' W 001°06'0 0.0
2019-Jul-12 12:30N 50°49' W 001°06'1 2.4
2019-Jul-12 12:00N 50°48' W 001°07'713.8
2019-Jul-12 11:30N 50°43' W 000°59'917.5
2019-Jul-12 11:00N 50°34' W 000°57'918.6
2019-Jul-12 10:30N 50°25' W 000°52'2518.6
2019-Jul-12 09:09N 50°02' W 000°36'319.6
2019-Jul-12 09:00N 49°59' W 000°35'1019.6
2019-Jul-12 08:30N 49°50' W 000°30'1019.3
2019-Jul-12 08:00N 49°41' W 000°24'918.9
2019-Jul-12 07:30N 49°33' W 000°19'918.6
2019-Jul-12 07:00N 49°23' W 000°16'612.2
2019-Jul-12 06:30N 49°17' W 000°15'0 0.0
2019-Jul-12 06:00N 49°17' W 000°15'0 0.0
2019-Jul-12 05:30N 49°17' W 000°15'0 0.0
2019-Jul-12 05:00N 49°17' W 000°15'0 0.2
2019-Jul-12 04:30N 49°17' W 000°15'714.2
2019-Jul-12 04:01N 49°24' W 000°16'816.2
2019-Jul-12 03:30N 49°32' W 000°20'714.1
2019-Jul-12 03:00N 49°39' W 000°24'713.0
2019-Jul-12 02:30N 49°44' W 000°29'1616.3
2019-Jul-12 01:30N 49°59' W 000°39'815.6
2019-Jul-12 01:00N 50°06' W 000°44'815.9
2019-Jul-12 00:30N 50°14' W 000°47'916.1
2019-Jul-11 23:57N 50°23' W 000°50'716.0
2019-Jul-11 23:30N 50°30' W 000°53'815.8
2019-Jul-11 23:00N 50°37' W 000°57'714.4
2019-Jul-11 22:30N 50°44' W 001°02'611.5
2019-Jul-11 22:00N 50°49' W 001°07'1 1.1
2019-Jul-11 21:30N 50°49' W 001°06'0 0.0
2019-Jul-11 21:00N 50°49' W 001°06'0 0.0
2019-Jul-11 20:30N 50°49' W 001°06'2 3.0
2019-Jul-11 20:00N 50°47' W 001°06'816.5
2019-Jul-11 19:31N 50°40' W 000°60'1019.8
2019-Jul-11 19:01N 50°31' W 000°53'1019.3
2019-Jul-11 18:30N 50°23' W 000°46'1019.4
2019-Jul-11 18:00N 50°14' W 000°39'1019.4
2019-Jul-11 17:30N 50°05' W 000°33'1019.1
2019-Jul-11 17:00N 49°56' W 000°29'1019.2
2019-Jul-11 16:30N 49°47' W 000°26'1019.2
2019-Jul-11 16:00N 49°37' W 000°22'919.0
2019-Jul-11 15:30N 49°28' W 000°18'917.6
2019-Jul-11 15:01N 49°20' W 000°14'2 4.7
2019-Jul-11 14:30N 49°17' W 000°15'0 0.0
2019-Jul-11 14:00N 49°17' W 000°15'0 0.0
2019-Jul-11 13:30N 49°17' W 000°15'0 0.0
2019-Jul-11 13:00N 49°17' W 000°15'4 7.3
2019-Jul-11 12:30N 49°21' W 000°14'918.6
2019-Jul-11 12:00N 49°30' W 000°18'1019.4
2019-Jul-11 11:30N 49°39' W 000°24'919.0
2019-Jul-11 11:00N 49°48' W 000°30'918.4
2019-Jul-11 10:30N 49°56' W 000°35'918.4
2019-Jul-11 10:00N 50°05' W 000°40'1018.6
2019-Jul-11 09:29N 50°14' W 000°45'1519.1
2019-Jul-11 08:41N 50°29' W 000°52'318.7
2019-Jul-11 08:30N 50°32' W 000°54'918.6
2019-Jul-11 08:00N 50°40' W 000°59'816.4
2019-Jul-11 07:31N 50°47' W 001°06'2 3.3
2019-Jul-11 07:00N 50°49' W 001°06'0 0.0
2019-Jul-11 06:30N 50°49' W 001°06'0 0.0
2019-Jul-11 06:00N 50°49' W 001°06'0 0.6
2019-Jul-11 05:30N 50°49' W 001°06'510.8
2019-Jul-11 05:01N 50°44' W 001°03'815.7
2019-Jul-11 04:30N 50°36' W 000°58'815.5
2019-Jul-11 04:00N 50°29' W 000°55'815.5
2019-Jul-11 03:30N 50°22' W 000°51'610.9
2019-Jul-11 03:00N 50°16' W 000°48'510.5
2019-Jul-11 02:31N 50°11' W 000°46'510.2
2019-Jul-11 02:01N 50°07' W 000°43'610.3
2019-Jul-11 01:27N 50°01' W 000°39'510.7
2019-Jul-11 01:01N 49°57' W 000°37'510.8
2019-Jul-11 00:31N 49°52' W 000°35'611.0
2019-Jul-11 00:01N 49°47' W 000°33'611.7
2019-Jul-10 23:30N 49°41' W 000°29'611.6
2019-Jul-10 23:01N 49°36' W 000°26'611.3
2019-Jul-10 22:31N 49°30' W 000°23'611.8
2019-Jul-10 22:00N 49°25' W 000°18'611.3
2019-Jul-10 21:31N 49°20' W 000°15'3 5.7
2019-Jul-10 21:00N 49°17' W 000°15'0 0.0
2019-Jul-10 20:30N 49°17' W 000°15'0 0.0
2019-Jul-10 20:00N 49°17' W 000°15'0 0.0
2019-Jul-10 19:30N 49°17' W 000°15'0 0.0
2019-Jul-10 19:00N 49°17' W 000°15'0 0.0
2019-Jul-10 18:30N 49°17' W 000°15'0 0.0
2019-Jul-10 18:00N 49°17' W 000°15'0 0.0
2019-Jul-10 17:30N 49°17' W 000°15'0 0.0
2019-Jul-10 17:00N 49°17' W 000°15'0 0.0
2019-Jul-10 16:30N 49°17' W 000°15'0 0.0
2019-Jul-10 16:00N 49°17' W 000°15'0 0.0
2019-Jul-10 15:30N 49°17' W 000°15'0 0.0
2019-Jul-10 15:00N 49°17' W 000°15'0 0.0
2019-Jul-10 14:30N 49°17' W 000°15'0 0.0
2019-Jul-10 14:00N 49°17' W 000°15'0 0.0
2019-Jul-10 13:30N 49°17' W 000°15'0 0.0
2019-Jul-10 13:00N 49°17' W 000°15'4 7.7
2019-Jul-10 12:30N 49°21' W 000°14'816.8
2019-Jul-10 12:01N 49°29' W 000°18'917.9
2019-Jul-10 11:31N 49°37' W 000°23'918.8
2019-Jul-10 11:00N 49°47' W 000°27'918.9
2019-Jul-10 10:31N 49°56' W 000°31'918.6
2019-Jul-10 10:01N 50°04' W 000°36'918.6
2019-Jul-10 09:31N 50°13' W 000°41'918.4
2019-Jul-10 09:00N 50°21' W 000°48'919.0
2019-Jul-10 08:31N 50°30' W 000°53'918.9
2019-Jul-10 08:01N 50°39' W 000°58'917.4
2019-Jul-10 07:31N 50°46' W 001°06'2 4.8
2019-Jul-10 07:00N 50°49' W 001°06'0 0.0
2019-Jul-10 06:30N 50°49' W 001°06'0 0.0
2019-Jul-10 06:00N 50°49' W 001°06'0 0.7
2019-Jul-10 05:30N 50°49' W 001°06'611.8
2019-Jul-10 05:00N 50°43' W 001°03'815.0
2019-Jul-10 04:30N 50°36' W 000°58'815.2
2019-Jul-10 04:00N 50°29' W 000°53'714.8
2019-Jul-10 03:31N 50°23' W 000°49'815.2
2019-Jul-10 03:00N 50°15' W 000°45'1014.7
2019-Jul-10 02:21N 50°06' W 000°39'310.1
2019-Jul-10 02:00N 50°03' W 000°38'510.2
2019-Jul-10 01:30N 49°58' W 000°35'510.0
2019-Jul-10 01:00N 49°54' W 000°32'510.1
2019-Jul-10 00:30N 49°49' W 000°30'510.3
2019-Jul-10 00:00N 49°44' W 000°27'510.4
2019-Jul-09 23:30N 49°39' W 000°25'510.1
2019-Jul-09 23:00N 49°34' W 000°24'4 8.8
2019-Jul-09 22:30N 49°30' W 000°22'611.2
2019-Jul-09 22:00N 49°25' W 000°17'510.7
2019-Jul-09 21:30N 49°20' W 000°15'3 5.2
2019-Jul-09 21:00N 49°17' W 000°15'0 0.0
2019-Jul-09 20:30N 49°17' W 000°15'0 0.0
2019-Jul-09 20:00N 49°17' W 000°15'0 0.0
2019-Jul-09 19:30N 49°17' W 000°15'4 8.6
2019-Jul-09 19:01N 49°22' W 000°15'816.3
2019-Jul-09 18:31N 49°29' W 000°19'917.9
2019-Jul-09 18:00N 49°38' W 000°24'918.4
2019-Jul-09 17:30N 49°47' W 000°27'918.6
2019-Jul-09 17:00N 49°56' W 000°31'918.8
2019-Jul-09 16:30N 50°05' W 000°35'918.8
2019-Jul-09 16:00N 50°13' W 000°40'1018.7
2019-Jul-09 15:28N 50°23' W 000°46'918.9
2019-Jul-09 15:00N 50°30' W 000°53'918.3
2019-Jul-09 14:30N 50°39' W 000°58'816.5
2019-Jul-09 14:00N 50°46' W 001°05'3 6.0
2019-Jul-09 13:31N 50°49' W 001°06'0 0.0
2019-Jul-09 13:01N 50°49' W 001°06'0 0.0
2019-Jul-09 12:31N 50°49' W 001°06'1 1.7
2019-Jul-09 12:01N 50°48' W 001°07'714.2
2019-Jul-09 11:30N 50°42' W 001°02'817.0
2019-Jul-09 11:00N 50°34' W 000°57'917.4
2019-Jul-09 10:30N 50°26' W 000°53'918.6
2019-Jul-09 10:00N 50°17' W 000°49'1019.4
2019-Jul-09 09:30N 50°07' W 000°45'1019.8
2019-Jul-09 09:00N 49°58' W 000°39'1020.0
2019-Jul-09 08:30N 49°49' W 000°33'1020.0
2019-Jul-09 08:00N 49°40' W 000°27'1019.7
2019-Jul-09 07:30N 49°31' W 000°21'1019.9
2019-Jul-09 07:00N 49°21' W 000°15'4 8.2
2019-Jul-09 06:31N 49°17' W 000°15'0 0.0
2019-Jul-09 06:00N 49°17' W 000°15'0 0.0
2019-Jul-09 05:31N 49°17' W 000°15'0 0.0
2019-Jul-09 05:01N 49°17' W 000°15'0 0.1
2019-Jul-09 04:31N 49°17' W 000°15'611.4
2019-Jul-09 04:00N 49°23' W 000°15'714.5
2019-Jul-09 03:31N 49°29' W 000°20'714.4
2019-Jul-09 03:00N 49°36' W 000°24'714.5
2019-Jul-09 02:30N 49°43' W 000°28'714.6
2019-Jul-09 02:00N 49°50' W 000°30'714.7
2019-Jul-09 01:30N 49°57' W 000°34'714.9
2019-Jul-09 01:00N 50°04' W 000°37'714.8
2019-Jul-09 00:30N 50°11' W 000°41'714.8
2019-Jul-09 00:00N 50°19' W 000°44'714.8
2019-Jul-08 23:30N 50°25' W 000°49'815.0
2019-Jul-08 23:00N 50°32' W 000°54'714.9
2019-Jul-08 22:30N 50°39' W 000°58'714.3
2019-Jul-08 22:01N 50°45' W 001°05'4 8.3
2019-Jul-08 21:30N 50°49' W 001°06'0 0.0
2019-Jul-08 21:00N 50°49' W 001°06'0 0.0
2019-Jul-08 20:30N 50°49' W 001°06'1 1.7
2019-Jul-08 20:00N 50°48' W 001°07'713.6
2019-Jul-08 19:31N 50°42' W 001°01'917.5
2019-Jul-08 19:01N 50°34' W 000°57'1019.4
2019-Jul-08 18:30N 50°24' W 000°55'1019.1
2019-Jul-08 18:00N 50°16' W 000°48'1019.8
2019-Jul-08 17:30N 50°07' W 000°41'1020.2
2019-Jul-08 17:00N 49°58' W 000°35'1020.2
2019-Jul-08 16:31N 49°48' W 000°29'1020.0
2019-Jul-08 16:01N 49°39' W 000°25'1019.6
2019-Jul-08 15:30N 49°30' W 000°19'919.0
2019-Jul-08 15:00N 49°21' W 000°15'3 6.4
2019-Jul-08 14:30N 49°17' W 000°15'0 0.0
2019-Jul-08 14:01N 49°17' W 000°15'0 0.0
2019-Jul-08 13:31N 49°17' W 000°15'0 0.0
2019-Jul-08 13:01N 49°17' W 000°15'5 9.1
2019-Jul-08 12:31N 49°22' W 000°14'918.6
2019-Jul-08 12:00N 49°31' W 000°19'918.6
2019-Jul-08 11:30N 49°39' W 000°26'1020.3
2019-Jul-08 11:00N 49°48' W 000°33'1020.2
2019-Jul-08 10:30N 49°57' W 000°41'1019.6
2019-Jul-08 10:00N 50°05' W 000°48'1018.1
2019-Jul-08 09:26N 50°16' W 000°49'819.3
2019-Jul-08 09:00N 50°24' W 000°52'918.9
2019-Jul-08 08:30N 50°33' W 000°55'918.7
2019-Jul-08 08:01N 50°42' W 000°58'815.9
2019-Jul-08 07:30N 50°48' W 001°07'1 2.2
2019-Jul-08 07:00N 50°49' W 001°06'0 0.0
2019-Jul-08 06:30N 50°49' W 001°06'0 0.0
2019-Jul-08 06:00N 50°49' W 001°06'0 0.2
2019-Jul-08 05:31N 50°49' W 001°06'4 8.0
2019-Jul-08 05:00N 50°45' W 001°05'816.3
2019-Jul-08 04:30N 50°38' W 000°58'714.8
2019-Jul-08 04:01N 50°31' W 000°55'815.0
2019-Jul-08 03:30N 50°24' W 000°51'815.0
2019-Jul-08 03:00N 50°17' W 000°46'715.0
2019-Jul-08 02:31N 50°10' W 000°42'612.0
2019-Jul-08 02:00N 50°04' W 000°39'510.3
2019-Jul-08 01:30N 49°59' W 000°35'510.4
2019-Jul-08 01:00N 49°54' W 000°33'510.4
2019-Jul-08 00:30N 49°49' W 000°31'510.2
2019-Jul-08 00:00N 49°45' W 000°28'510.1
2019-Jul-07 23:30N 49°40' W 000°25'5 9.9
2019-Jul-07 23:00N 49°36' W 000°21'5 9.3
2019-Jul-07 22:30N 49°31' W 000°21'510.2
2019-Jul-07 22:00N 49°26' W 000°18'510.2
2019-Jul-07 21:30N 49°22' W 000°15'4 8.4
2019-Jul-07 21:00N 49°17' W 000°15'0 0.0
2019-Jul-07 20:30N 49°17' W 000°15'0 0.0
2019-Jul-07 20:00N 49°17' W 000°15'0 0.0
2019-Jul-07 19:30N 49°17' W 000°15'5 9.4
2019-Jul-07 19:00N 49°22' W 000°15'917.8
2019-Jul-07 18:30N 49°30' W 000°21'917.8
2019-Jul-07 18:00N 49°38' W 000°26'917.6
2019-Jul-07 17:30N 49°47' W 000°30'5017.9
2019-Jul-07 14:44N 50°33' W 000°56'418.2
2019-Jul-07 14:30N 50°37' W 000°59'917.1
2019-Jul-07 14:00N 50°45' W 001°05'4 7.7
2019-Jul-07 13:30N 50°49' W 001°06'0 0.0
2019-Jul-07 13:01N 50°49' W 001°06'0 0.0
2019-Jul-07 12:30N 50°49' W 001°06'0 1.0
2019-Jul-07 12:00N 50°49' W 001°07'713.8
2019-Jul-07 11:30N 50°42' W 001°02'917.7
2019-Jul-07 11:01N 50°34' W 000°56'1018.2
2019-Jul-07 10:29N 50°25' W 000°51'1219.5
2019-Jul-07 09:51N 50°13' W 000°48'919.4
2019-Jul-07 09:23N 50°04' W 000°44'719.4
2019-Jul-07 09:00N 49°58' W 000°40'1019.6
2019-Jul-07 08:30N 49°48' W 000°34'1019.9
2019-Jul-07 08:00N 49°39' W 000°28'1019.6
2019-Jul-07 07:30N 49°31' W 000°22'1019.5
2019-Jul-07 07:00N 49°22' W 000°15'4 8.6
2019-Jul-07 06:30N 49°17' W 000°15'0 0.0
2019-Jul-07 06:00N 49°17' W 000°15'0 0.0
2019-Jul-07 05:30N 49°17' W 000°15'0 0.0
2019-Jul-07 05:00N 49°17' W 000°15'0 0.2
2019-Jul-07 04:30N 49°17' W 000°15'612.9
2019-Jul-07 04:00N 49°24' W 000°16'714.0
2019-Jul-07 03:31N 49°30' W 000°20'713.9
2019-Jul-07 03:00N 49°37' W 000°24'1414.2
2019-Jul-07 02:00N 49°50' W 000°30'814.8
2019-Jul-07 01:28N 49°58' W 000°33'715.2
2019-Jul-07 01:00N 50°04' W 000°37'815.4
2019-Jul-07 00:29N 50°12' W 000°42'1715.0
2019-Jul-06 23:23N 50°27' W 000°51'615.8
2019-Jul-06 23:00N 50°33' W 000°55'815.7
2019-Jul-06 22:30N 50°40' W 000°60'815.6
2019-Jul-06 22:01N 50°47' W 001°06'2 4.2
2019-Jul-06 21:31N 50°49' W 001°06'0 0.0
2019-Jul-06 21:00N 50°49' W 001°06'0 0.0
2019-Jul-06 20:30N 50°49' W 001°06'1 2.4
2019-Jul-06 20:01N 50°48' W 001°07'713.4
2019-Jul-06 19:31N 50°43' W 000°59'816.9
2019-Jul-06 19:00N 50°35' W 000°56'918.2
2019-Jul-06 18:30N 50°26' W 000°52'918.1
2019-Jul-06 18:01N 50°17' W 000°47'918.6
2019-Jul-06 17:31N 50°09' W 000°42'918.8
2019-Jul-06 17:00N 49°60' W 000°38'1019.1
2019-Jul-06 16:30N 49°51' W 000°33'1019.2
2019-Jul-06 16:01N 49°42' W 000°28'1019.0
2019-Jul-06 15:30N 49°33' W 000°22'918.7
2019-Jul-06 15:01N 49°24' W 000°17'714.0
2019-Jul-06 14:30N 49°17' W 000°15'0 0.0
2019-Jul-06 14:00N 49°17' W 000°15'0 0.0
2019-Jul-06 13:30N 49°17' W 000°15'0 0.0
2019-Jul-06 13:00N 49°17' W 000°15'5 9.4
2019-Jul-06 12:31N 49°22' W 000°14'1019.4
2019-Jul-06 12:00N 49°31' W 000°19'1019.3
2019-Jul-06 11:30N 49°40' W 000°26'919.0
2019-Jul-06 11:01N 49°49' W 000°30'  

Dump ship's entire track history